sensor_id;sensor_type;location;lat;lon;timestamp;P1;durP1;ratioP1;P2;durP2;ratioP2
76714;SDS011;65644;44.990;20.288;2023-02-11T00:00:57;160.67;;;77.80;;
76714;SDS011;65644;44.990;20.288;2023-02-11T00:03:23;130.33;;;69.13;;
76714;SDS011;65644;44.990;20.288;2023-02-11T00:05:59;128.83;;;65.07;;
76714;SDS011;65644;44.990;20.288;2023-02-11T00:08:25;138.13;;;68.53;;
76714;SDS011;65644;44.990;20.288;2023-02-11T00:10:52;132.50;;;69.23;;
76714;SDS011;65644;44.990;20.288;2023-02-11T00:13:19;140.70;;;69.17;;
76714;SDS011;65644;44.990;20.288;2023-02-11T00:15:45;130.37;;;68.47;;
76714;SDS011;65644;44.990;20.288;2023-02-11T00:18:11;117.63;;;60.33;;
76714;SDS011;65644;44.990;20.288;2023-02-11T00:20:40;110.30;;;57.50;;
76714;SDS011;65644;44.990;20.288;2023-02-11T00:23:06;112.33;;;58.17;;
76714;SDS011;65644;44.990;20.288;2023-02-11T00:25:32;105.63;;;56.10;;
76714;SDS011;65644;44.990;20.288;2023-02-11T00:27:58;102.50;;;53.47;;
76714;SDS011;65644;44.990;20.288;2023-02-11T00:30:24;111.33;;;53.77;;
76714;SDS011;65644;44.990;20.288;2023-02-11T00:32:50;106.60;;;55.27;;
76714;SDS011;65644;44.990;20.288;2023-02-11T00:35:16;114.73;;;56.23;;
76714;SDS011;65644;44.990;20.288;2023-02-11T00:37:42;110.70;;;56.63;;
76714;SDS011;65644;44.990;20.288;2023-02-11T00:40:08;111.87;;;57.60;;
76714;SDS011;65644;44.990;20.288;2023-02-11T00:42:35;103.20;;;54.87;;
76714;SDS011;65644;44.990;20.288;2023-02-11T00:45:01;110.97;;;55.50;;
76714;SDS011;65644;44.990;20.288;2023-02-11T00:47:27;112.27;;;55.83;;
76714;SDS011;65644;44.990;20.288;2023-02-11T00:49:53;106.60;;;56.00;;
76714;SDS011;65644;44.990;20.288;2023-02-11T00:52:19;106.30;;;56.83;;
76714;SDS011;65644;44.990;20.288;2023-02-11T00:54:45;109.13;;;58.27;;
76714;SDS011;65644;44.990;20.288;2023-02-11T00:57:11;107.97;;;57.83;;
76714;SDS011;65644;44.990;20.288;2023-02-11T00:59:37;107.70;;;57.40;;
76714;SDS011;65644;44.990;20.288;2023-02-11T01:02:04;105.30;;;55.43;;
76714;SDS011;65644;44.990;20.288;2023-02-11T01:04:30;104.60;;;55.00;;
76714;SDS011;65644;44.990;20.288;2023-02-11T01:06:56;104.77;;;56.40;;
76714;SDS011;65644;44.990;20.288;2023-02-11T01:09:22;100.90;;;56.47;;
76714;SDS011;65644;44.990;20.288;2023-02-11T01:11:48;108.60;;;57.90;;
76714;SDS011;65644;44.990;20.288;2023-02-11T01:14:14;104.03;;;56.07;;
76714;SDS011;65644;44.990;20.288;2023-02-11T01:16:40;115.13;;;57.73;;
76714;SDS011;65644;44.990;20.288;2023-02-11T01:19:06;105.93;;;55.50;;
76714;SDS011;65644;44.990;20.288;2023-02-11T01:21:32;107.27;;;60.00;;
76714;SDS011;65644;44.990;20.288;2023-02-11T01:23:58;108.53;;;57.43;;
76714;SDS011;65644;44.990;20.288;2023-02-11T01:26:24;132.33;;;67.87;;
76714;SDS011;65644;44.990;20.288;2023-02-11T01:28:50;121.27;;;64.43;;
76714;SDS011;65644;44.990;20.288;2023-02-11T01:31:16;137.33;;;68.37;;
76714;SDS011;65644;44.990;20.288;2023-02-11T01:33:42;114.40;;;61.67;;
76714;SDS011;65644;44.990;20.288;2023-02-11T01:36:09;113.93;;;62.07;;
76714;SDS011;65644;44.990;20.288;2023-02-11T01:38:35;116.77;;;60.47;;
76714;SDS011;65644;44.990;20.288;2023-02-11T01:41:05;116.73;;;60.37;;
76714;SDS011;65644;44.990;20.288;2023-02-11T01:43:36;123.10;;;63.73;;
76714;SDS011;65644;44.990;20.288;2023-02-11T01:48:35;138.93;;;71.27;;
76714;SDS011;65644;44.990;20.288;2023-02-11T01:51:16;142.57;;;73.83;;
76714;SDS011;65644;44.990;20.288;2023-02-11T01:53:43;142.27;;;76.73;;
76714;SDS011;65644;44.990;20.288;2023-02-11T01:56:28;152.45;;;80.82;;
76714;SDS011;65644;44.990;20.288;2023-02-11T02:01:40;160.83;;;81.97;;
76714;SDS011;65644;44.990;20.288;2023-02-11T02:04:10;153.73;;;82.00;;
76714;SDS011;65644;44.990;20.288;2023-02-11T02:06:39;205.57;;;92.77;;
76714;SDS011;65644;44.990;20.288;2023-02-11T02:09:10;184.10;;;90.60;;
76714;SDS011;65644;44.990;20.288;2023-02-11T02:11:40;198.50;;;95.63;;
76714;SDS011;65644;44.990;20.288;2023-02-11T02:14:06;168.37;;;88.73;;
76714;SDS011;65644;44.990;20.288;2023-02-11T02:16:33;196.93;;;93.90;;
76714;SDS011;65644;44.990;20.288;2023-02-11T02:19:17;163.90;;;85.67;;
76714;SDS011;65644;44.990;20.288;2023-02-11T02:24:30;183.33;;;90.00;;
76714;SDS011;65644;44.990;20.288;2023-02-11T02:32:28;155.57;;;84.10;;
76714;SDS011;65644;44.990;20.288;2023-02-11T02:35:02;150.90;;;80.63;;
76714;SDS011;65644;44.990;20.288;2023-02-11T02:37:30;145.03;;;80.23;;
76714;SDS011;65644;44.990;20.288;2023-02-11T02:39:59;143.10;;;79.93;;
76714;SDS011;65644;44.990;20.288;2023-02-11T02:42:28;141.97;;;78.17;;
76714;SDS011;65644;44.990;20.288;2023-02-11T02:44:54;145.03;;;81.07;;
76714;SDS011;65644;44.990;20.288;2023-02-11T02:47:20;140.53;;;77.50;;
76714;SDS011;65644;44.990;20.288;2023-02-11T02:49:46;144.53;;;79.07;;
76714;SDS011;65644;44.990;20.288;2023-02-11T02:52:15;149.90;;;82.27;;
76714;SDS011;65644;44.990;20.288;2023-02-11T03:02:57;146.43;;;79.87;;
76714;SDS011;65644;44.990;20.288;2023-02-11T03:07:51;143.32;;;79.45;;
76714;SDS011;65644;44.990;20.288;2023-02-11T03:10:52;147.63;;;80.57;;
76714;SDS011;65644;44.990;20.288;2023-02-11T03:13:11;151.57;;;81.20;;
76714;SDS011;65644;44.990;20.288;2023-02-11T03:15:42;150.57;;;81.87;;
76714;SDS011;65644;44.990;20.288;2023-02-11T03:18:09;156.83;;;85.73;;
76714;SDS011;65644;44.990;20.288;2023-02-11T03:20:36;166.70;;;91.07;;
76714;SDS011;65644;44.990;20.288;2023-02-11T03:23:14;168.63;;;89.33;;
76714;SDS011;65644;44.990;20.288;2023-02-11T03:28:36;171.47;;;93.07;;
76714;SDS011;65644;44.990;20.288;2023-02-11T03:33:41;169.73;;;92.60;;
76714;SDS011;65644;44.990;20.288;2023-02-11T03:36:14;179.03;;;96.83;;
76714;SDS011;65644;44.990;20.288;2023-02-11T03:38:44;164.40;;;92.07;;
76714;SDS011;65644;44.990;20.288;2023-02-11T03:41:11;178.40;;;93.03;;
76714;SDS011;65644;44.990;20.288;2023-02-11T03:43:43;161.90;;;90.87;;
76714;SDS011;65644;44.990;20.288;2023-02-11T03:46:09;173.77;;;94.13;;
76714;SDS011;65644;44.990;20.288;2023-02-11T03:48:38;171.70;;;94.50;;
76714;SDS011;65644;44.990;20.288;2023-02-11T03:51:06;169.63;;;92.60;;
76714;SDS011;65644;44.990;20.288;2023-02-11T03:53:33;176.03;;;95.33;;
76714;SDS011;65644;44.990;20.288;2023-02-11T03:55:59;169.90;;;94.80;;
76714;SDS011;65644;44.990;20.288;2023-02-11T03:58:27;185.00;;;96.83;;
76714;SDS011;65644;44.990;20.288;2023-02-11T04:00:53;173.13;;;95.10;;
76714;SDS011;65644;44.990;20.288;2023-02-11T04:03:19;190.33;;;99.70;;
76714;SDS011;65644;44.990;20.288;2023-02-11T04:05:45;187.83;;;100.73;;
76714;SDS011;65644;44.990;20.288;2023-02-11T04:08:11;184.03;;;99.60;;
76714;SDS011;65644;44.990;20.288;2023-02-11T04:10:38;177.57;;;97.87;;
76714;SDS011;65644;44.990;20.288;2023-02-11T04:13:04;178.57;;;98.33;;
76714;SDS011;65644;44.990;20.288;2023-02-11T04:15:30;183.30;;;99.37;;
76714;SDS011;65644;44.990;20.288;2023-02-11T04:17:56;181.73;;;98.20;;
76714;SDS011;65644;44.990;20.288;2023-02-11T04:20:22;184.47;;;100.67;;
76714;SDS011;65644;44.990;20.288;2023-02-11T04:22:48;185.77;;;98.83;;
76714;SDS011;65644;44.990;20.288;2023-02-11T04:25:14;179.73;;;96.07;;
76714;SDS011;65644;44.990;20.288;2023-02-11T04:27:40;184.33;;;99.40;;
76714;SDS011;65644;44.990;20.288;2023-02-11T04:30:06;181.33;;;99.33;;
76714;SDS011;65644;44.990;20.288;2023-02-11T04:32:32;180.33;;;97.80;;
76714;SDS011;65644;44.990;20.288;2023-02-11T04:34:58;180.60;;;97.33;;
76714;SDS011;65644;44.990;20.288;2023-02-11T04:37:24;177.70;;;97.83;;
76714;SDS011;65644;44.990;20.288;2023-02-11T04:39:50;179.60;;;96.87;;
76714;SDS011;65644;44.990;20.288;2023-02-11T04:42:16;176.33;;;97.70;;
76714;SDS011;65644;44.990;20.288;2023-02-11T04:44:42;180.50;;;96.20;;
76714;SDS011;65644;44.990;20.288;2023-02-11T04:47:08;169.20;;;94.73;;
76714;SDS011;65644;44.990;20.288;2023-02-11T04:49:36;170.53;;;93.00;;
76714;SDS011;65644;44.990;20.288;2023-02-11T04:52:02;172.17;;;93.43;;
76714;SDS011;65644;44.990;20.288;2023-02-11T04:54:29;174.87;;;94.70;;
76714;SDS011;65644;44.990;20.288;2023-02-11T04:56:55;177.03;;;94.07;;
76714;SDS011;65644;44.990;20.288;2023-02-11T04:59:21;174.10;;;94.03;;
76714;SDS011;65644;44.990;20.288;2023-02-11T05:01:47;185.57;;;98.70;;
76714;SDS011;65644;44.990;20.288;2023-02-11T05:04:14;187.37;;;99.17;;
76714;SDS011;65644;44.990;20.288;2023-02-11T05:06:40;184.37;;;97.77;;
76714;SDS011;65644;44.990;20.288;2023-02-11T05:09:06;175.80;;;95.17;;
76714;SDS011;65644;44.990;20.288;2023-02-11T05:11:32;178.10;;;97.37;;
76714;SDS011;65644;44.990;20.288;2023-02-11T05:13:58;184.27;;;96.83;;
76714;SDS011;65644;44.990;20.288;2023-02-11T05:16:24;181.57;;;95.50;;
76714;SDS011;65644;44.990;20.288;2023-02-11T05:18:50;182.20;;;96.60;;
76714;SDS011;65644;44.990;20.288;2023-02-11T05:21:17;179.03;;;96.67;;
76714;SDS011;65644;44.990;20.288;2023-02-11T05:23:43;186.17;;;97.10;;
76714;SDS011;65644;44.990;20.288;2023-02-11T05:26:10;181.87;;;95.23;;
76714;SDS011;65644;44.990;20.288;2023-02-11T05:28:37;179.27;;;94.47;;
76714;SDS011;65644;44.990;20.288;2023-02-11T05:31:03;175.07;;;93.00;;
76714;SDS011;65644;44.990;20.288;2023-02-11T05:33:29;175.50;;;94.63;;
76714;SDS011;65644;44.990;20.288;2023-02-11T05:36:02;175.53;;;94.50;;
76714;SDS011;65644;44.990;20.288;2023-02-11T05:38:29;183.83;;;94.07;;
76714;SDS011;65644;44.990;20.288;2023-02-11T05:40:55;181.10;;;91.47;;
76714;SDS011;65644;44.990;20.288;2023-02-11T05:43:21;173.20;;;89.83;;
76714;SDS011;65644;44.990;20.288;2023-02-11T05:45:47;163.57;;;88.77;;
76714;SDS011;65644;44.990;20.288;2023-02-11T05:48:13;160.23;;;82.37;;
76714;SDS011;65644;44.990;20.288;2023-02-11T05:50:40;163.40;;;91.03;;
76714;SDS011;65644;44.990;20.288;2023-02-11T05:53:06;165.57;;;90.23;;
76714;SDS011;65644;44.990;20.288;2023-02-11T05:55:32;171.33;;;90.07;;
76714;SDS011;65644;44.990;20.288;2023-02-11T05:57:58;162.53;;;89.13;;
76714;SDS011;65644;44.990;20.288;2023-02-11T06:00:24;157.90;;;86.57;;
76714;SDS011;65644;44.990;20.288;2023-02-11T06:02:50;163.23;;;85.93;;
76714;SDS011;65644;44.990;20.288;2023-02-11T06:05:16;161.83;;;87.77;;
76714;SDS011;65644;44.990;20.288;2023-02-11T06:07:42;154.13;;;84.50;;
76714;SDS011;65644;44.990;20.288;2023-02-11T06:10:09;160.97;;;84.97;;
76714;SDS011;65644;44.990;20.288;2023-02-11T06:12:35;174.80;;;93.00;;
76714;SDS011;65644;44.990;20.288;2023-02-11T06:15:02;179.73;;;97.43;;
76714;SDS011;65644;44.990;20.288;2023-02-11T06:17:28;176.13;;;92.50;;
76714;SDS011;65644;44.990;20.288;2023-02-11T06:19:58;176.03;;;95.07;;
76714;SDS011;65644;44.990;20.288;2023-02-11T06:22:24;171.10;;;88.93;;
76714;SDS011;65644;44.990;20.288;2023-02-11T06:24:50;167.63;;;92.87;;
76714;SDS011;65644;44.990;20.288;2023-02-11T06:27:17;169.73;;;91.77;;
76714;SDS011;65644;44.990;20.288;2023-02-11T06:29:43;155.87;;;86.20;;
76714;SDS011;65644;44.990;20.288;2023-02-11T06:32:09;162.73;;;88.73;;
76714;SDS011;65644;44.990;20.288;2023-02-11T06:34:35;164.23;;;88.80;;
76714;SDS011;65644;44.990;20.288;2023-02-11T06:37:01;163.33;;;89.00;;
76714;SDS011;65644;44.990;20.288;2023-02-11T06:39:28;165.77;;;89.20;;
76714;SDS011;65644;44.990;20.288;2023-02-11T06:41:54;168.40;;;91.83;;
76714;SDS011;65644;44.990;20.288;2023-02-11T06:44:20;164.20;;;88.53;;
76714;SDS011;65644;44.990;20.288;2023-02-11T06:46:47;161.20;;;87.33;;
76714;SDS011;65644;44.990;20.288;2023-02-11T06:49:13;155.23;;;85.73;;
76714;SDS011;65644;44.990;20.288;2023-02-11T06:51:39;159.67;;;86.80;;
76714;SDS011;65644;44.990;20.288;2023-02-11T06:54:05;161.77;;;91.80;;
76714;SDS011;65644;44.990;20.288;2023-02-11T06:56:32;169.77;;;89.07;;
76714;SDS011;65644;44.990;20.288;2023-02-11T06:58:58;178.97;;;92.03;;
76714;SDS011;65644;44.990;20.288;2023-02-11T07:01:25;179.27;;;87.10;;
76714;SDS011;65644;44.990;20.288;2023-02-11T07:03:52;163.37;;;85.87;;
76714;SDS011;65644;44.990;20.288;2023-02-11T07:06:19;147.00;;;80.00;;
76714;SDS011;65644;44.990;20.288;2023-02-11T07:08:45;137.27;;;79.43;;
76714;SDS011;65644;44.990;20.288;2023-02-11T07:11:13;132.07;;;75.73;;
76714;SDS011;65644;44.990;20.288;2023-02-11T07:13:39;125.90;;;75.33;;
76714;SDS011;65644;44.990;20.288;2023-02-11T07:16:06;129.13;;;72.37;;
76714;SDS011;65644;44.990;20.288;2023-02-11T07:18:33;136.43;;;77.93;;
76714;SDS011;65644;44.990;20.288;2023-02-11T07:21:02;177.40;;;92.93;;
76714;SDS011;65644;44.990;20.288;2023-02-11T07:23:28;170.67;;;91.30;;
76714;SDS011;65644;44.990;20.288;2023-02-11T07:25:54;134.13;;;78.60;;
76714;SDS011;65644;44.990;20.288;2023-02-11T07:28:20;130.47;;;77.27;;
76714;SDS011;65644;44.990;20.288;2023-02-11T07:30:46;123.37;;;75.23;;
76714;SDS011;65644;44.990;20.288;2023-02-11T07:33:12;124.97;;;77.93;;
76714;SDS011;65644;44.990;20.288;2023-02-11T07:35:38;148.20;;;84.97;;
76714;SDS011;65644;44.990;20.288;2023-02-11T07:38:04;134.67;;;80.03;;
76714;SDS011;65644;44.990;20.288;2023-02-11T07:40:30;126.85;;;78.75;;
76714;SDS011;65644;44.990;20.288;2023-02-11T07:42:57;123.18;;;79.82;;
76714;SDS011;65644;44.990;20.288;2023-02-11T07:45:23;124.05;;;77.88;;
76714;SDS011;65644;44.990;20.288;2023-02-11T07:47:49;126.65;;;79.75;;
76714;SDS011;65644;44.990;20.288;2023-02-11T07:50:15;123.55;;;78.32;;
76714;SDS011;65644;44.990;20.288;2023-02-11T07:52:41;119.53;;;76.18;;
76714;SDS011;65644;44.990;20.288;2023-02-11T07:55:07;117.93;;;75.63;;
76714;SDS011;65644;44.990;20.288;2023-02-11T07:57:34;116.60;;;77.53;;
76714;SDS011;65644;44.990;20.288;2023-02-11T08:00:00;134.50;;;83.50;;
76714;SDS011;65644;44.990;20.288;2023-02-11T08:02:26;127.07;;;80.20;;
76714;SDS011;65644;44.990;20.288;2023-02-11T08:04:52;130.32;;;84.32;;
76714;SDS011;65644;44.990;20.288;2023-02-11T08:07:18;116.13;;;77.85;;
76714;SDS011;65644;44.990;20.288;2023-02-11T08:09:44;121.43;;;77.47;;
76714;SDS011;65644;44.990;20.288;2023-02-11T08:12:10;115.37;;;73.97;;
76714;SDS011;65644;44.990;20.288;2023-02-11T08:14:36;115.37;;;71.03;;
76714;SDS011;65644;44.990;20.288;2023-02-11T08:17:03;117.30;;;75.07;;
76714;SDS011;65644;44.990;20.288;2023-02-11T08:19:29;116.40;;;72.23;;
76714;SDS011;65644;44.990;20.288;2023-02-11T08:21:55;123.63;;;73.70;;
76714;SDS011;65644;44.990;20.288;2023-02-11T08:24:21;148.77;;;84.70;;
76714;SDS011;65644;44.990;20.288;2023-02-11T08:26:47;126.30;;;74.87;;
76714;SDS011;65644;44.990;20.288;2023-02-11T08:29:14;109.50;;;65.30;;
76714;SDS011;65644;44.990;20.288;2023-02-11T08:31:41;105.10;;;65.57;;
76714;SDS011;65644;44.990;20.288;2023-02-11T08:34:09;110.10;;;67.60;;
76714;SDS011;65644;44.990;20.288;2023-02-11T08:36:36;104.00;;;62.57;;
76714;SDS011;65644;44.990;20.288;2023-02-11T08:39:36;119.57;;;72.37;;
76714;SDS011;65644;44.990;20.288;2023-02-11T08:41:55;140.73;;;86.60;;
76714;SDS011;65644;44.990;20.288;2023-02-11T08:44:21;116.27;;;73.03;;
76714;SDS011;65644;44.990;20.288;2023-02-11T08:46:47;114.57;;;67.57;;
76714;SDS011;65644;44.990;20.288;2023-02-11T08:49:14;105.03;;;63.30;;
76714;SDS011;65644;44.990;20.288;2023-02-11T08:51:40;107.97;;;70.70;;
76714;SDS011;65644;44.990;20.288;2023-02-11T08:54:06;122.80;;;75.57;;
76714;SDS011;65644;44.990;20.288;2023-02-11T08:56:34;113.23;;;65.03;;
76714;SDS011;65644;44.990;20.288;2023-02-11T08:59:00;104.03;;;60.80;;
76714;SDS011;65644;44.990;20.288;2023-02-11T09:01:27;166.13;;;114.83;;
76714;SDS011;65644;44.990;20.288;2023-02-11T09:03:54;96.63;;;61.43;;
76714;SDS011;65644;44.990;20.288;2023-02-11T09:06:21;155.03;;;104.13;;
76714;SDS011;65644;44.990;20.288;2023-02-11T09:08:48;148.87;;;99.13;;
76714;SDS011;65644;44.990;20.288;2023-02-11T09:11:14;202.83;;;137.60;;
76714;SDS011;65644;44.990;20.288;2023-02-11T09:13:41;162.47;;;110.87;;
76714;SDS011;65644;44.990;20.288;2023-02-11T09:16:10;109.80;;;71.97;;
76714;SDS011;65644;44.990;20.288;2023-02-11T09:18:40;102.90;;;65.03;;
76714;SDS011;65644;44.990;20.288;2023-02-11T09:21:07;94.00;;;59.63;;
76714;SDS011;65644;44.990;20.288;2023-02-11T09:23:33;101.73;;;63.17;;
76714;SDS011;65644;44.990;20.288;2023-02-11T09:26:06;131.40;;;90.30;;
76714;SDS011;65644;44.990;20.288;2023-02-11T09:28:33;194.63;;;137.67;;
76714;SDS011;65644;44.990;20.288;2023-02-11T09:31:03;160.57;;;117.50;;
76714;SDS011;65644;44.990;20.288;2023-02-11T09:33:29;238.77;;;176.70;;
76714;SDS011;65644;44.990;20.288;2023-02-11T09:35:55;230.10;;;174.23;;
76714;SDS011;65644;44.990;20.288;2023-02-11T09:38:24;112.53;;;75.87;;
76714;SDS011;65644;44.990;20.288;2023-02-11T09:40:50;229.30;;;152.53;;
76714;SDS011;65644;44.990;20.288;2023-02-11T09:43:18;213.50;;;153.43;;
76714;SDS011;65644;44.990;20.288;2023-02-11T09:45:45;104.63;;;69.00;;
76714;SDS011;65644;44.990;20.288;2023-02-11T09:48:17;249.30;;;152.07;;
76714;SDS011;65644;44.990;20.288;2023-02-11T09:50:46;133.93;;;96.80;;
76714;SDS011;65644;44.990;20.288;2023-02-11T09:55:57;104.60;;;68.30;;
76714;SDS011;65644;44.990;20.288;2023-02-11T09:58:34;178.53;;;111.40;;
76714;SDS011;65644;44.990;20.288;2023-02-11T10:06:30;114.57;;;79.43;;
76714;SDS011;65644;44.990;20.288;2023-02-11T10:14:03;121.40;;;69.80;;
76714;SDS011;65644;44.990;20.288;2023-02-11T10:21:44;75.73;;;48.50;;
76714;SDS011;65644;44.990;20.288;2023-02-11T10:24:15;127.17;;;90.60;;
76714;SDS011;65644;44.990;20.288;2023-02-11T10:26:42;84.53;;;55.67;;
76714;SDS011;65644;44.990;20.288;2023-02-11T10:29:30;82.23;;;52.23;;
76714;SDS011;65644;44.990;20.288;2023-02-11T10:31:58;86.93;;;58.10;;
76714;SDS011;65644;44.990;20.288;2023-02-11T10:34:25;105.97;;;67.37;;
76714;SDS011;65644;44.990;20.288;2023-02-11T10:36:52;174.93;;;142.90;;
76714;SDS011;65644;44.990;20.288;2023-02-11T10:39:21;96.23;;;67.47;;
76714;SDS011;65644;44.990;20.288;2023-02-11T10:41:49;110.60;;;75.40;;
76714;SDS011;65644;44.990;20.288;2023-02-11T10:46:49;101.17;;;69.03;;
76714;SDS011;65644;44.990;20.288;2023-02-11T10:49:36;83.77;;;57.40;;
76714;SDS011;65644;44.990;20.288;2023-02-11T10:57:33;80.03;;;54.20;;
76714;SDS011;65644;44.990;20.288;2023-02-11T11:00:02;74.43;;;49.10;;
76714;SDS011;65644;44.990;20.288;2023-02-11T11:02:29;187.13;;;119.70;;
76714;SDS011;65644;44.990;20.288;2023-02-11T11:04:59;77.73;;;50.87;;
76714;SDS011;65644;44.990;20.288;2023-02-11T11:07:27;84.43;;;55.53;;
76714;SDS011;65644;44.990;20.288;2023-02-11T11:12:25;93.20;;;62.53;;
76714;SDS011;65644;44.990;20.288;2023-02-11T11:14:55;69.65;;;43.78;;
76714;SDS011;65644;44.990;20.288;2023-02-11T11:17:21;58.67;;;39.05;;
76714;SDS011;65644;44.990;20.288;2023-02-11T11:19:47;59.92;;;37.65;;
76714;SDS011;65644;44.990;20.288;2023-02-11T11:22:20;66.88;;;42.75;;
76714;SDS011;65644;44.990;20.288;2023-02-11T11:24:47;62.70;;;40.30;;
76714;SDS011;65644;44.990;20.288;2023-02-11T11:27:19;64.32;;;41.53;;
76714;SDS011;65644;44.990;20.288;2023-02-11T11:29:51;54.97;;;32.55;;
76714;SDS011;65644;44.990;20.288;2023-02-11T11:32:19;40.83;;;27.05;;
76714;SDS011;65644;44.990;20.288;2023-02-11T11:34:52;46.08;;;28.38;;
76714;SDS011;65644;44.990;20.288;2023-02-11T11:39:53;79.45;;;43.45;;
76714;SDS011;65644;44.990;20.288;2023-02-11T11:44:54;55.25;;;34.92;;
76714;SDS011;65644;44.990;20.288;2023-02-11T11:47:24;47.78;;;30.48;;
76714;SDS011;65644;44.990;20.288;2023-02-11T11:50:04;37.92;;;26.38;;
76714;SDS011;65644;44.990;20.288;2023-02-11T11:52:36;48.63;;;29.95;;
76714;SDS011;65644;44.990;20.288;2023-02-11T11:55:12;44.38;;;27.52;;
76714;SDS011;65644;44.990;20.288;2023-02-11T11:57:40;43.03;;;27.88;;
76714;SDS011;65644;44.990;20.288;2023-02-11T12:00:19;43.60;;;28.52;;
76714;SDS011;65644;44.990;20.288;2023-02-11T12:02:56;49.10;;;29.90;;
76714;SDS011;65644;44.990;20.288;2023-02-11T12:05:35;44.80;;;26.20;;
76714;SDS011;65644;44.990;20.288;2023-02-11T12:13:26;41.10;;;26.13;;
76714;SDS011;65644;44.990;20.288;2023-02-11T12:21:09;43.35;;;27.10;;
76714;SDS011;65644;44.990;20.288;2023-02-11T12:26:21;40.30;;;27.38;;
76714;SDS011;65644;44.990;20.288;2023-02-11T12:29:09;50.83;;;29.35;;
76714;SDS011;65644;44.990;20.288;2023-02-11T12:44:57;42.10;;;27.80;;
76714;SDS011;65644;44.990;20.288;2023-02-11T12:52:29;40.50;;;26.02;;
76714;SDS011;65644;44.990;20.288;2023-02-11T12:54:59;36.88;;;25.45;;
76714;SDS011;65644;44.990;20.288;2023-02-11T12:57:27;43.55;;;28.60;;
76714;SDS011;65644;44.990;20.288;2023-02-11T13:04:53;41.65;;;27.05;;
76714;SDS011;65644;44.990;20.288;2023-02-11T13:07:38;38.58;;;25.90;;
76714;SDS011;65644;44.990;20.288;2023-02-11T13:12:35;43.50;;;26.15;;
76714;SDS011;65644;44.990;20.288;2023-02-11T13:15:20;38.83;;;26.65;;
76714;SDS011;65644;44.990;20.288;2023-02-11T13:20:52;41.47;;;28.55;;
76714;SDS011;65644;44.990;20.288;2023-02-11T13:23:18;44.28;;;28.83;;
76714;SDS011;65644;44.990;20.288;2023-02-11T13:25:49;43.53;;;29.73;;
76714;SDS011;65644;44.990;20.288;2023-02-11T13:28:24;44.20;;;28.90;;
76714;SDS011;65644;44.990;20.288;2023-02-11T13:30:52;45.33;;;29.63;;
76714;SDS011;65644;44.990;20.288;2023-02-11T13:33:30;45.25;;;29.77;;
76714;SDS011;65644;44.990;20.288;2023-02-11T13:38:26;38.83;;;28.27;;
76714;SDS011;65644;44.990;20.288;2023-02-11T13:41:00;41.03;;;29.17;;
76714;SDS011;65644;44.990;20.288;2023-02-11T13:43:27;43.03;;;30.55;;
76714;SDS011;65644;44.990;20.288;2023-02-11T13:46:04;41.53;;;28.98;;
76714;SDS011;65644;44.990;20.288;2023-02-11T13:48:34;40.00;;;29.15;;
76714;SDS011;65644;44.990;20.288;2023-02-11T13:51:03;42.42;;;30.67;;
76714;SDS011;65644;44.990;20.288;2023-02-11T13:53:52;40.75;;;29.60;;
76714;SDS011;65644;44.990;20.288;2023-02-11T13:56:23;41.42;;;29.33;;
76714;SDS011;65644;44.990;20.288;2023-02-11T13:58:53;41.47;;;28.95;;
76714;SDS011;65644;44.990;20.288;2023-02-11T14:04:17;41.65;;;30.08;;
76714;SDS011;65644;44.990;20.288;2023-02-11T14:13:55;49.83;;;32.60;;
76714;SDS011;65644;44.990;20.288;2023-02-11T14:16:04;49.42;;;31.90;;
76714;SDS011;65644;44.990;20.288;2023-02-11T14:19:16;44.00;;;30.83;;
76714;SDS011;65644;44.990;20.288;2023-02-11T14:21:29;46.08;;;30.13;;
76714;SDS011;65644;44.990;20.288;2023-02-11T14:26:56;42.63;;;29.10;;
76714;SDS011;65644;44.990;20.288;2023-02-11T14:29:34;45.35;;;29.45;;
76714;SDS011;65644;44.990;20.288;2023-02-11T14:34:40;50.00;;;33.45;;
76714;SDS011;65644;44.990;20.288;2023-02-11T14:42:17;64.85;;;37.20;;
76714;SDS011;65644;44.990;20.288;2023-02-11T14:44:45;52.50;;;33.22;;
76714;SDS011;65644;44.990;20.288;2023-02-11T14:47:17;82.32;;;50.95;;
76714;SDS011;65644;44.990;20.288;2023-02-11T14:49:44;61.08;;;39.45;;
76714;SDS011;65644;44.990;20.288;2023-02-11T14:54:49;80.57;;;44.85;;
76714;SDS011;65644;44.990;20.288;2023-02-11T14:57:16;63.00;;;37.30;;
76714;SDS011;65644;44.990;20.288;2023-02-11T14:59:56;54.67;;;31.67;;
76714;SDS011;65644;44.990;20.288;2023-02-11T15:02:24;53.83;;;32.88;;
76714;SDS011;65644;44.990;20.288;2023-02-11T15:04:51;54.20;;;33.03;;
76714;SDS011;65644;44.990;20.288;2023-02-11T15:07:19;47.10;;;31.60;;
76714;SDS011;65644;44.990;20.288;2023-02-11T15:09:51;213.63;;;132.00;;
76714;SDS011;65644;44.990;20.288;2023-02-11T15:12:22;105.85;;;73.95;;
76714;SDS011;65644;44.990;20.288;2023-02-11T15:14:50;61.25;;;37.08;;
76714;SDS011;65644;44.990;20.288;2023-02-11T15:17:18;54.63;;;34.67;;
76714;SDS011;65644;44.990;20.288;2023-02-11T15:19:46;54.53;;;34.40;;
76714;SDS011;65644;44.990;20.288;2023-02-11T15:22:17;52.30;;;34.30;;
76714;SDS011;65644;44.990;20.288;2023-02-11T15:24:56;63.45;;;35.88;;
76714;SDS011;65644;44.990;20.288;2023-02-11T15:27:22;62.88;;;41.05;;
76714;SDS011;65644;44.990;20.288;2023-02-11T15:29:50;65.78;;;41.15;;
76714;SDS011;65644;44.990;20.288;2023-02-11T15:34:45;76.85;;;46.45;;
76714;SDS011;65644;44.990;20.288;2023-02-11T15:37:13;67.22;;;41.05;;
76714;SDS011;65644;44.990;20.288;2023-02-11T15:39:40;55.50;;;35.13;;
76714;SDS011;65644;44.990;20.288;2023-02-11T15:42:19;59.92;;;38.45;;
76714;SDS011;65644;44.990;20.288;2023-02-11T15:44:46;74.93;;;42.28;;
76714;SDS011;65644;44.990;20.288;2023-02-11T15:47:18;80.33;;;44.93;;
76714;SDS011;65644;44.990;20.288;2023-02-11T15:49:44;71.45;;;41.85;;
76714;SDS011;65644;44.990;20.288;2023-02-11T15:52:11;77.90;;;44.58;;
76714;SDS011;65644;44.990;20.288;2023-02-11T15:54:38;81.80;;;48.23;;
76714;SDS011;65644;44.990;20.288;2023-02-11T15:57:06;82.65;;;51.25;;
76714;SDS011;65644;44.990;20.288;2023-02-11T15:59:37;80.75;;;52.75;;
76714;SDS011;65644;44.990;20.288;2023-02-11T16:02:19;88.15;;;58.80;;
76714;SDS011;65644;44.990;20.288;2023-02-11T16:04:48;92.87;;;55.90;;
76714;SDS011;65644;44.990;20.288;2023-02-11T16:09:59;67.05;;;42.47;;
76714;SDS011;65644;44.990;20.288;2023-02-11T16:12:25;64.97;;;40.77;;
76714;SDS011;65644;44.990;20.288;2023-02-11T16:14:51;73.53;;;44.87;;
76714;SDS011;65644;44.990;20.288;2023-02-11T16:19:44;70.43;;;44.07;;
76714;SDS011;65644;44.990;20.288;2023-02-11T16:22:14;79.03;;;46.77;;
76714;SDS011;65644;44.990;20.288;2023-02-11T16:24:41;77.93;;;50.40;;